Time;durP1;ratioP1;P1;durP2;ratioP2;P2;SDS_P1;SDS_P2;PMS_P1;PMS_P2;Temp;Humidity;BMP_temperature;BMP_pressure;BME280_temperature;BME280_humidity;BME280_pressure;Samples;Min_cycle;Max_cycle;Signal;HPM_P1;HPM_P2
2021/08/19 00:01:01;;;;;;;2.70;1.40;;;20.70;99.30;;;;;;4971383;28;20482;-84
2021/08/19 00:03:26;;;;;;;2.45;1.38;;;20.70;99.30;;;;;;4974879;28;20034;-82
2021/08/19 00:05:52;;;;;;;3.50;1.40;;;20.60;99.30;;;;;;4974145;28;20419;-82
2021/08/19 00:08:18;;;;;;;2.85;1.23;;;20.60;99.20;;;;;;4973926;28;20530;-82
2021/08/19 00:10:44;;;;;;;4.47;1.42;;;20.60;99.20;;;;;;4956368;28;20031;-81
2021/08/19 00:13:09;;;;;;;3.35;1.40;;;20.70;99.20;;;;;;4974104;28;20019;-83
2021/08/19 00:15:35;;;;;;;1.77;1.08;;;20.60;99.20;;;;;;4969026;28;20033;-80
2021/08/19 00:18:01;;;;;;;1.98;1.08;;;20.70;99.20;;;;;;4957187;28;20035;-83
2021/08/19 00:20:26;;;;;;;3.92;1.50;;;20.70;99.20;;;;;;4969874;28;20035;-83
2021/08/19 00:22:52;;;;;;;3.78;1.50;;;20.60;99.20;;;;;;4954817;29;20020;-81
2021/08/19 00:25:17;;;;;;;2.00;1.15;;;20.60;99.10;;;;;;4957825;28;20115;-82
2021/08/19 00:27:43;;;;;;;2.63;1.27;;;20.60;99.10;;;;;;4965782;28;20035;-82
2021/08/19 00:30:09;;;;;;;2.15;1.10;;;20.60;99.00;;;;;;4964019;28;20110;-83
2021/08/19 00:32:35;;;;;;;2.58;1.25;;;20.60;99.10;;;;;;4961527;28;20019;-81
2021/08/19 00:35:00;;;;;;;2.22;1.17;;;20.60;99.10;;;;;;4957398;28;20467;-82
2021/08/19 00:37:26;;;;;;;1.85;1.00;;;20.60;99.10;;;;;;4956246;29;20101;-81
2021/08/19 00:39:52;;;;;;;2.33;1.10;;;20.60;99.10;;;;;;4953204;28;20031;-81
2021/08/19 00:42:17;;;;;;;2.08;0.95;;;20.60;99.10;;;;;;4974591;28;20045;-80
2021/08/19 00:44:47;;;;;;;2.90;1.33;;;20.60;99.10;;;;;;4974543;28;20037;-81
2021/08/19 00:47:13;;;;;;;3.58;1.17;;;20.60;99.10;;;;;;4972632;28;20038;-80
2021/08/19 00:49:42;;;;;;;2.42;1.17;;;20.60;99.00;;;;;;4967229;28;20041;-82
2021/08/19 00:52:08;;;;;;;2.63;1.35;;;20.60;99.10;;;;;;4973722;28;20029;-82
2021/08/19 00:54:36;;;;;;;2.88;1.42;;;20.60;99.10;;;;;;4973722;28;20027;-82
2021/08/19 00:57:04;;;;;;;2.83;1.13;;;20.60;99.10;;;;;;4944560;28;20466;-82
2021/08/19 00:59:36;;;;;;;4.93;1.40;;;20.60;99.10;;;;;;4961904;28;20391;-81
2021/08/19 01:02:07;;;;;;;3.88;1.48;;;20.60;99.00;;;;;;4954163;29;20027;-81
2021/08/19 01:04:38;;;;;;;2.42;1.20;;;20.60;99.00;;;;;;4965434;28;20038;-81
2021/08/19 01:07:05;;;;;;;2.20;1.30;;;20.60;99.00;;;;;;4951556;28;20027;-80
2021/08/19 01:09:31;;;;;;;2.33;1.13;;;20.60;99.00;;;;;;4953951;28;20487;-82
2021/08/19 01:11:57;;;;;;;1.73;1.00;;;20.50;99.00;;;;;;4953928;29;20027;-80
2021/08/19 01:14:23;;;;;;;2.03;0.90;;;20.50;99.20;;;;;;4971641;28;20034;-80
2021/08/19 01:16:49;;;;;;;3.22;1.40;;;20.50;98.90;;;;;;4973324;28;20031;-80
2021/08/19 01:19:18;;;;;;;2.30;1.02;;;20.50;98.90;;;;;;4964493;28;20027;-80
2021/08/19 01:21:46;;;;;;;2.67;1.17;;;20.50;98.90;;;;;;4968964;28;20073;-81
2021/08/19 01:24:12;;;;;;;4.20;1.35;;;20.60;98.90;;;;;;4971549;28;20023;-79
2021/08/19 01:26:39;;;;;;;3.00;1.30;;;20.50;98.90;;;;;;4958170;28;20615;-80
2021/08/19 01:29:05;;;;;;;3.25;1.38;;;20.50;98.80;;;;;;4955808;28;20039;-81
2021/08/19 01:31:32;;;;;;;2.28;1.10;;;20.60;98.90;;;;;;4962763;28;20495;-80
2021/08/19 01:33:58;;;;;;;2.58;1.13;;;20.60;98.80;;;;;;4956869;28;20110;-81
2021/08/19 01:36:24;;;;;;;1.55;0.90;;;20.50;98.80;;;;;;4973422;28;20106;-79
2021/08/19 01:38:51;;;;;;;2.53;1.20;;;20.50;98.80;;;;;;4966802;28;20136;-80
2021/08/19 01:41:17;;;;;;;3.00;1.30;;;20.50;98.80;;;;;;4958848;28;20023;-81
2021/08/19 01:43:46;;;;;;;2.47;1.23;;;20.50;98.80;;;;;;4958407;28;20042;-80
2021/08/19 01:46:14;;;;;;;1.73;1.00;;;20.50;98.70;;;;;;4952660;29;20522;-80
2021/08/19 01:48:50;;;;;;;1.92;1.05;;;20.50;98.70;;;;;;4955598;28;20483;-80
2021/08/19 01:51:20;;;;;;;4.28;1.65;;;20.50;98.80;;;;;;4954672;28;20032;-80
2021/08/19 01:53:52;;;;;;;1.77;1.17;;;20.50;98.80;;;;;;4935455;29;20027;-81
2021/08/19 01:56:19;;;;;;;3.25;1.17;;;20.50;98.70;;;;;;4953919;28;20027;-80
2021/08/19 01:58:48;;;;;;;2.72;1.40;;;20.50;98.70;;;;;;4954763;28;20498;-81
2021/08/19 02:01:21;;;;;;;3.05;1.20;;;20.50;98.70;;;;;;4961584;28;20031;-81
2021/08/19 02:03:47;;;;;;;2.10;1.35;;;20.50;98.70;;;;;;4973652;28;20074;-80
2021/08/19 02:06:13;;;;;;;2.63;1.40;;;20.50;98.70;;;;;;4959035;28;20049;-80
2021/08/19 02:08:38;;;;;;;4.43;1.40;;;20.50;98.70;;;;;;4970194;28;20031;-81
2021/08/19 02:11:04;;;;;;;2.67;1.10;;;20.50;98.70;;;;;;4957217;28;20093;-80
2021/08/19 02:13:30;;;;;;;2.33;1.23;;;20.50;98.70;;;;;;4957248;29;20106;-81
2021/08/19 02:15:56;;;;;;;1.88;1.10;;;20.50;98.70;;;;;;4963105;28;20529;-81
2021/08/19 02:18:22;;;;;;;2.00;1.00;;;20.40;98.60;;;;;;4975790;28;20027;-80
2021/08/19 02:20:47;;;;;;;2.33;1.25;;;20.40;98.60;;;;;;4974599;28;20573;-81
2021/08/19 02:23:13;;;;;;;2.83;1.40;;;20.50;98.60;;;;;;4958201;28;20431;-81
2021/08/19 02:25:39;;;;;;;1.92;0.90;;;20.50;98.60;;;;;;4975861;28;20031;-81
2021/08/19 02:28:05;;;;;;;2.70;1.13;;;20.40;98.60;;;;;;4975334;28;20035;-81
2021/08/19 02:30:30;;;;;;;2.13;0.90;;;20.40;98.60;;;;;;4962940;28;20028;-82
2021/08/19 02:32:56;;;;;;;2.47;1.27;;;20.50;98.60;;;;;;4975598;28;20027;-81
2021/08/19 02:35:26;;;;;;;1.38;0.95;;;20.40;98.60;;;;;;4972702;28;20498;-80
2021/08/19 02:37:54;;;;;;;1.33;0.80;;;20.40;98.60;;;;;;4975600;28;20031;-80
2021/08/19 02:40:22;;;;;;;3.33;1.20;;;20.40;98.50;;;;;;4976485;28;20022;-82
2021/08/19 02:42:48;;;;;;;1.85;0.93;;;20.40;98.60;;;;;;4975732;28;20042;-81
2021/08/19 02:45:14;;;;;;;2.78;1.20;;;20.40;98.50;;;;;;4974767;28;20050;-82
2021/08/19 02:47:40;;;;;;;1.80;0.93;;;20.40;98.50;;;;;;4953708;28;20104;-81
2021/08/19 02:50:06;;;;;;;2.95;1.15;;;20.40;98.50;;;;;;4949574;28;20541;-81
2021/08/19 02:52:31;;;;;;;1.75;0.90;;;20.40;98.50;;;;;;4975142;28;20041;-80
2021/08/19 02:54:57;;;;;;;2.10;1.10;;;20.40;98.60;;;;;;4957403;28;20023;-81
2021/08/19 02:57:23;;;;;;;2.42;1.35;;;20.40;98.60;;;;;;4956082;28;20395;-82
2021/08/19 02:59:48;;;;;;;2.60;1.02;;;20.40;98.50;;;;;;4955688;28;20027;-81
2021/08/19 03:02:14;;;;;;;2.35;1.23;;;20.40;98.50;;;;;;4955639;29;20027;-81
2021/08/19 03:04:40;;;;;;;2.40;1.08;;;20.40;98.50;;;;;;4955163;28;20031;-80
2021/08/19 03:07:07;;;;;;;2.65;1.30;;;20.40;98.50;;;;;;4970636;28;20030;-80
2021/08/19 03:09:33;;;;;;;2.63;1.33;;;20.40;98.50;;;;;;4975125;28;20054;-81
2021/08/19 03:11:59;;;;;;;2.85;1.00;;;20.40;98.50;;;;;;4973777;28;20478;-81
2021/08/19 03:14:25;;;;;;;1.38;1.02;;;20.40;98.50;;;;;;4957027;29;20465;-80
2021/08/19 03:16:50;;;;;;;2.47;1.25;;;20.40;98.50;;;;;;4956548;28;20074;-81
2021/08/19 03:19:16;;;;;;;3.15;1.38;;;20.40;98.50;;;;;;4955177;28;20459;-82
2021/08/19 03:21:43;;;;;;;2.08;1.10;;;20.40;98.50;;;;;;4966697;28;20027;-80
2021/08/19 03:24:08;;;;;;;2.20;1.20;;;20.40;98.50;;;;;;4974502;28;20404;-81
2021/08/19 03:26:34;;;;;;;2.78;1.15;;;20.40;98.40;;;;;;4974853;28;20027;-82
2021/08/19 03:29:00;;;;;;;3.03;1.10;;;20.40;98.40;;;;;;4963901;28;20558;-82
2021/08/19 03:31:27;;;;;;;3.90;1.10;;;20.40;98.50;;;;;;4960643;29;20030;-82
2021/08/19 03:33:52;;;;;;;1.85;1.10;;;20.40;98.50;;;;;;4979296;28;20023;-80
2021/08/19 03:36:18;;;;;;;2.03;1.10;;;20.40;98.40;;;;;;4954635;28;20070;-82
2021/08/19 03:38:44;;;;;;;3.33;1.08;;;20.40;98.40;;;;;;4981111;28;20023;-81
2021/08/19 03:41:13;;;;;;;2.55;1.17;;;20.40;98.40;;;;;;4982407;28;20068;-80
2021/08/19 03:43:39;;;;;;;3.05;1.00;;;20.40;98.40;;;;;;4979479;28;20441;-80
2021/08/19 03:46:05;;;;;;;1.38;0.80;;;20.40;98.40;;;;;;4979646;28;20447;-80
2021/08/19 03:48:31;;;;;;;1.58;0.80;;;20.40;98.40;;;;;;4958904;28;20388;-81
2021/08/19 03:50:57;;;;;;;2.35;1.23;;;20.40;98.40;;;;;;4972030;28;20095;-80
2021/08/19 03:53:23;;;;;;;2.35;0.90;;;20.40;98.40;;;;;;4971537;28;20018;-80
2021/08/19 03:55:49;;;;;;;4.35;0.90;;;20.30;98.40;;;;;;4980705;28;20554;-82
2021/08/19 03:58:14;;;;;;;2.58;1.25;;;20.40;98.40;;;;;;4984661;28;20023;-81
2021/08/19 04:00:40;;;;;;;2.30;0.85;;;20.40;98.40;;;;;;4983780;28;20376;-80
2021/08/19 04:03:05;;;;;;;2.92;1.17;;;20.30;98.30;;;;;;4965046;28;20027;-81
2021/08/19 04:05:31;;;;;;;2.85;0.95;;;20.40;98.30;;;;;;4964413;28;20058;-81
2021/08/19 04:07:57;;;;;;;1.73;0.85;;;20.40;98.30;;;;;;4963549;28;20022;-81
2021/08/19 04:10:22;;;;;;;3.85;1.13;;;20.40;98.30;;;;;;4976353;28;20031;-81
2021/08/19 04:12:48;;;;;;;2.42;0.90;;;20.40;98.30;;;;;;4976903;28;20498;-82
2021/08/19 04:15:14;;;;;;;1.67;0.98;;;20.40;98.30;;;;;;4959129;29;20442;-81
2021/08/19 04:17:40;;;;;;;1.95;0.85;;;20.30;98.30;;;;;;4957991;28;20082;-80
2021/08/19 04:20:07;;;;;;;2.35;0.80;;;20.40;98.30;;;;;;4965006;28;20031;-81
2021/08/19 04:22:32;;;;;;;1.75;0.82;;;20.30;98.30;;;;;;4970025;28;20027;-81
2021/08/19 04:24:58;;;;;;;1.80;0.73;;;20.30;98.30;;;;;;4973272;28;20049;-81
2021/08/19 04:27:24;;;;;;;1.58;0.90;;;20.40;98.30;;;;;;4975144;28;20042;-81
2021/08/19 04:29:49;;;;;;;1.40;0.88;;;20.30;98.30;;;;;;4970054;28;20031;-81
2021/08/19 04:32:16;;;;;;;1.23;0.70;;;20.30;98.30;;;;;;4964146;28;20073;-80
2021/08/19 04:34:41;;;;;;;1.75;0.82;;;20.40;98.30;;;;;;4973120;28;20027;-82
2021/08/19 04:37:07;;;;;;;1.88;0.98;;;20.30;98.30;;;;;;4968343;28;20035;-80
2021/08/19 04:39:33;;;;;;;3.40;1.10;;;20.30;98.30;;;;;;4972838;28;20545;-80
2021/08/19 04:41:58;;;;;;;1.77;0.95;;;20.30;98.30;;;;;;4979048;28;20038;-81
2021/08/19 04:44:24;;;;;;;2.15;0.70;;;20.30;98.20;;;;;;4976883;28;20077;-81
2021/08/19 04:46:50;;;;;;;1.63;0.90;;;20.30;98.20;;;;;;4959985;29;20530;-81
2021/08/19 04:49:16;;;;;;;2.60;1.10;;;20.30;98.20;;;;;;4960286;29;20028;-81
2021/08/19 04:51:42;;;;;;;1.70;0.70;;;20.30;98.20;;;;;;4969139;28;20503;-80
2021/08/19 04:54:08;;;;;;;1.33;0.90;;;20.30;98.20;;;;;;4957091;28;20035;-81
2021/08/19 04:56:37;;;;;;;1.55;0.95;;;20.30;98.20;;;;;;4958334;28;20767;-81
2021/08/19 04:59:07;;;;;;;1.38;0.70;;;20.30;98.20;;;;;;4978474;28;20061;-81
2021/08/19 05:01:34;;;;;;;2.97;1.15;;;20.30;98.20;;;;;;4972562;28;20026;-80
2021/08/19 05:04:00;;;;;;;1.77;0.82;;;20.30;98.20;;;;;;4968399;28;20039;-80
2021/08/19 05:06:30;;;;;;;1.67;1.05;;;20.30;98.10;;;;;;4973534;28;20045;-81
2021/08/19 05:08:57;;;;;;;2.15;0.80;;;20.30;98.10;;;;;;4969659;28;20030;-81
2021/08/19 05:11:24;;;;;;;1.42;0.77;;;20.30;98.10;;;;;;4974792;28;20058;-81
2021/08/19 05:13:51;;;;;;;2.17;0.90;;;20.30;98.10;;;;;;4974813;28;20066;-82
2021/08/19 05:16:17;;;;;;;0.93;0.70;;;20.30;98.10;;;;;;4960801;28;20027;-82
2021/08/19 05:18:43;;;;;;;1.23;0.85;;;20.30;98.10;;;;;;4958372;29;20039;-82
2021/08/19 05:21:11;;;;;;;2.75;1.17;;;20.30;98.10;;;;;;4958287;29;20026;-81
2021/08/19 05:23:36;;;;;;;2.20;1.17;;;20.30;98.10;;;;;;4961027;28;20035;-83
2021/08/19 05:26:03;;;;;;;1.58;0.80;;;20.30;98.10;;;;;;4958120;29;20035;-81
2021/08/19 05:28:28;;;;;;;1.77;0.85;;;20.30;98.10;;;;;;4963313;28;20113;-82
2021/08/19 05:30:54;;;;;;;1.95;0.90;;;20.30;98.10;;;;;;4974077;28;20034;-81
2021/08/19 05:33:19;;;;;;;1.52;0.77;;;20.30;98.10;;;;;;4975049;28;20078;-81
2021/08/19 05:35:45;;;;;;;3.00;0.95;;;20.30;98.10;;;;;;4964296;28;20129;-81
2021/08/19 05:38:11;;;;;;;1.80;0.90;;;20.30;98.10;;;;;;4966877;28;20075;-82
2021/08/19 05:40:36;;;;;;;2.03;1.00;;;20.30;98.10;;;;;;4958512;28;20086;-82
2021/08/19 05:43:02;;;;;;;1.20;0.70;;;20.30;98.10;;;;;;4975581;28;20058;-83
2021/08/19 05:45:28;;;;;;;1.55;0.90;;;20.30;98.00;;;;;;4974547;28;20034;-82
2021/08/19 05:47:54;;;;;;;1.27;0.75;;;20.30;98.00;;;;;;4955404;28;20038;-83
2021/08/19 05:50:20;;;;;;;1.35;0.80;;;20.30;98.00;;;;;;4936317;29;20082;-82
2021/08/19 05:52:46;;;;;;;1.75;0.70;;;20.30;98.00;;;;;;4965817;28;20101;-83
2021/08/19 05:55:11;;;;;;;2.63;1.00;;;20.30;98.00;;;;;;4963670;28;20399;-81
2021/08/19 05:57:37;;;;;;;2.65;0.70;;;20.30;98.00;;;;;;4971921;28;20038;-80
2021/08/19 06:00:04;;;;;;;4.32;1.10;;;20.30;98.00;;;;;;4971081;28;20027;-81
2021/08/19 06:02:30;;;;;;;2.58;0.68;;;20.30;98.00;;;;;;4955704;28;20039;-81
2021/08/19 06:04:56;;;;;;;1.83;0.80;;;20.30;98.00;;;;;;4952680;28;20027;-82
2021/08/19 06:07:21;;;;;;;0.82;0.60;;;20.30;98.00;;;;;;4962111;28;20561;-82
2021/08/19 06:09:47;;;;;;;1.33;0.73;;;20.30;98.00;;;;;;4954251;28;20481;-83
2021/08/19 06:12:13;;;;;;;0.93;0.70;;;20.30;98.00;;;;;;4952274;29;20034;-80
2021/08/19 06:14:39;;;;;;;1.70;0.65;;;20.30;98.00;;;;;;4952700;28;20062;-82
2021/08/19 06:17:05;;;;;;;1.70;0.73;;;20.30;98.00;;;;;;4958320;28;20499;-81
2021/08/19 06:19:30;;;;;;;1.75;0.80;;;20.30;98.00;;;;;;4954947;28;20043;-82
2021/08/19 06:21:56;;;;;;;1.90;0.90;;;20.30;98.00;;;;;;4962496;28;20029;-79
2021/08/19 06:24:22;;;;;;;3.92;1.00;;;20.40;98.00;;;;;;4959600;28;20074;-82
2021/08/19 06:26:48;;;;;;;2.83;0.82;;;20.30;98.10;;;;;;4951909;28;20456;-83
2021/08/19 06:29:14;;;;;;;2.40;1.00;;;20.40;98.20;;;;;;4952094;28;20510;-83
2021/08/19 06:31:39;;;;;;;4.20;1.17;;;20.40;98.50;;;;;;4952522;29;20046;-81
2021/08/19 06:34:05;;;;;;;4.10;2.33;;;20.30;98.10;;;;;;4962401;28;20031;-82
2021/08/19 06:36:30;;;;;;;6.40;1.75;;;20.40;98.50;;;;;;4959408;28;20387;-82
2021/08/19 06:38:58;;;;;;;5.32;1.50;;;20.40;98.30;;;;;;4967228;28;20132;-89
2021/08/19 06:41:25;;;;;;;5.43;1.95;;;20.40;98.50;;;;;;4964113;28;20125;-82
2021/08/19 06:43:51;;;;;;;5.75;1.40;;;20.40;98.70;;;;;;4971851;28;20473;-81
2021/08/19 06:46:17;;;;;;;3.70;1.45;;;20.50;98.70;;;;;;4970958;28;20391;-82
2021/08/19 06:48:43;;;;;;;9.48;1.80;;;20.50;98.60;;;;;;4971776;28;20019;-81
2021/08/19 06:51:09;;;;;;;6.45;1.85;;;20.50;98.50;;;;;;4972718;28;20035;-81
2021/08/19 06:53:35;;;;;;;3.85;1.20;;;20.50;98.50;;;;;;4973100;28;20034;-81
2021/08/19 06:56:02;;;;;;;5.60;1.50;;;20.50;98.60;;;;;;4957294;28;20561;-81
2021/08/19 06:58:27;;;;;;;5.60;1.40;;;20.50;98.60;;;;;;4967348;28;20423;-80
2021/08/19 07:00:53;;;;;;;4.50;1.13;;;20.50;98.70;;;;;;4959336;28;20027;-81
2021/08/19 07:03:19;;;;;;;6.03;1.80;;;20.50;98.70;;;;;;4966118;28;20038;-81
2021/08/19 07:05:45;;;;;;;3.55;1.60;;;20.50;98.70;;;;;;4973280;28;20037;-81
2021/08/19 07:08:11;;;;;;;6.38;1.40;;;20.50;98.60;;;;;;4974706;28;20105;-81
2021/08/19 07:10:37;;;;;;;4.88;1.42;;;20.50;98.60;;;;;;4974777;28;20022;-81
2021/08/19 07:13:03;;;;;;;2.47;1.30;;;20.60;98.50;;;;;;4974802;28;20118;-81
2021/08/19 07:15:30;;;;;;;8.40;1.10;;;20.50;98.50;;;;;;4974775;28;20820;-81
2021/08/19 07:17:55;;;;;;;3.72;1.20;;;20.50;98.40;;;;;;4974650;28;20034;-81
2021/08/19 07:20:21;;;;;;;5.25;1.30;;;20.60;98.40;;;;;;4974361;28;20031;-81
2021/08/19 07:22:47;;;;;;;4.57;1.42;;;20.60;98.30;;;;;;4974579;28;20023;-82
2021/08/19 07:25:14;;;;;;;4.90;1.10;;;20.60;98.30;;;;;;4974123;28;20035;-81
2021/08/19 07:27:40;;;;;;;5.90;1.60;;;20.60;98.20;;;;;;4974510;28;20030;-81
2021/08/19 07:30:07;;;;;;;5.05;1.23;;;20.60;98.10;;;;;;4974531;28;20099;-81
2021/08/19 07:32:32;;;;;;;3.55;1.40;;;20.60;98.10;;;;;;4974164;28;20051;-81
2021/08/19 07:34:58;;;;;;;7.78;1.50;;;20.60;98.00;;;;;;4974714;28;20078;-81
2021/08/19 07:37:23;;;;;;;3.35;1.10;;;20.70;97.90;;;;;;4974069;28;20029;-81
2021/08/19 07:39:49;;;;;;;3.53;1.17;;;20.70;97.80;;;;;;4974204;28;20522;-81
2021/08/19 07:42:15;;;;;;;3.55;1.33;;;20.70;97.70;;;;;;4973861;28;20058;-81
2021/08/19 07:44:40;;;;;;;5.10;1.27;;;20.70;97.60;;;;;;4974190;28;20031;-82
2021/08/19 07:47:06;;;;;;;3.88;1.13;;;20.70;97.50;;;;;;4974093;28;20483;-81
2021/08/19 07:49:32;;;;;;;3.63;1.00;;;20.70;97.40;;;;;;4974089;28;20031;-81
2021/08/19 07:51:57;;;;;;;3.25;1.23;;;20.70;97.30;;;;;;4956960;28;20041;-81
2021/08/19 07:54:23;;;;;;;4.55;1.20;;;20.70;97.10;;;;;;4973780;28;20058;-81
2021/08/19 07:56:49;;;;;;;4.75;1.20;;;20.80;97.20;;;;;;4973916;28;20034;-81
2021/08/19 07:59:15;;;;;;;2.95;0.98;;;20.70;97.10;;;;;;4973717;28;20386;-81
2021/08/19 08:01:40;;;;;;;4.07;1.35;;;20.80;97.20;;;;;;4956276;28;20546;-81
2021/08/19 08:04:08;;;;;;;3.38;1.20;;;20.70;97.00;;;;;;4973889;28;20049;-81
2021/08/19 08:06:34;;;;;;;3.72;1.00;;;20.70;97.00;;;;;;4973385;28;20126;-81
2021/08/19 08:09:00;;;;;;;3.17;1.02;;;20.70;96.90;;;;;;4956556;28;20019;-81
2021/08/19 08:11:25;;;;;;;4.25;1.10;;;20.70;96.90;;;;;;4973444;28;20382;-81
2021/08/19 08:13:51;;;;;;;3.10;0.90;;;20.70;96.90;;;;;;4973721;28;20524;-81
2021/08/19 08:16:16;;;;;;;2.35;0.88;;;20.70;96.90;;;;;;4973265;28;20498;-81
2021/08/19 08:18:42;;;;;;;4.13;0.88;;;20.70;96.90;;;;;;4973631;28;20056;-81
2021/08/19 08:21:13;;;;;;;3.88;1.00;;;20.70;96.80;;;;;;4973530;28;20056;-81
2021/08/19 08:23:38;;;;;;;3.70;0.88;;;20.70;96.90;;;;;;4973495;28;20394;-81
2021/08/19 08:26:04;;;;;;;2.42;1.05;;;20.60;96.80;;;;;;4973655;28;20038;-81
2021/08/19 08:28:35;;;;;;;1.35;0.80;;;20.60;96.80;;;;;;4973439;28;20031;-81
2021/08/19 08:31:03;;;;;;;4.03;1.30;;;20.60;96.80;;;;;;4973651;28;20050;-82
2021/08/19 08:33:30;;;;;;;4.93;0.98;;;20.60;96.70;;;;;;4955721;28;20406;-81
2021/08/19 08:35:56;;;;;;;1.77;0.77;;;20.70;96.80;;;;;;4955936;28;20034;-81
2021/08/19 08:38:22;;;;;;;2.45;0.90;;;20.60;96.70;;;;;;4955610;28;20494;-81
2021/08/19 08:40:50;;;;;;;2.53;1.27;;;20.70;96.70;;;;;;4955697;28;20114;-80
2021/08/19 08:43:20;;;;;;;3.08;1.00;;;20.70;96.60;;;;;;4972904;28;20027;-81
2021/08/19 08:45:46;;;;;;;4.43;0.90;;;20.70;96.50;;;;;;4972993;28;20058;-81
2021/08/19 08:48:19;;;;;;;4.25;1.00;;;20.70;96.40;;;;;;4972752;28;20026;-81
2021/08/19 08:50:48;;;;;;;2.03;0.80;;;20.70;96.30;;;;;;4972898;28;20027;-82
2021/08/19 08:53:15;;;;;;;1.83;0.80;;;20.70;96.30;;;;;;4972691;28;20027;-80
2021/08/19 08:55:41;;;;;;;1.95;0.90;;;20.70;96.20;;;;;;4972790;28;20018;-81
2021/08/19 08:58:08;;;;;;;1.45;0.77;;;20.70;96.30;;;;;;4972860;28;20031;-80
2021/08/19 09:00:34;;;;;;;2.03;0.90;;;20.70;96.20;;;;;;4972825;28;20032;-81
2021/08/19 09:03:00;;;;;;;3.33;1.00;;;20.70;96.10;;;;;;4971526;28;20506;-81
2021/08/19 09:05:29;;;;;;;3.75;0.93;;;20.80;96.10;;;;;;4972295;28;20056;-81
2021/08/19 09:07:56;;;;;;;2.40;0.68;;;20.80;96.00;;;;;;4972740;28;20027;-81
2021/08/19 09:10:28;;;;;;;2.65;1.00;;;20.80;95.90;;;;;;4972361;28;20034;-81
2021/08/19 09:12:55;;;;;;;1.60;0.80;;;20.80;95.80;;;;;;4972700;28;20111;-80
2021/08/19 09:15:25;;;;;;;4.63;1.20;;;20.80;95.70;;;;;;4971826;28;20023;-81
2021/08/19 09:17:55;;;;;;;1.65;0.80;;;20.80;95.60;;;;;;4972514;28;20027;-81
2021/08/19 09:20:36;;;;;;;2.55;0.93;;;20.80;95.60;;;;;;4972334;28;20046;-80
2021/08/19 09:23:06;;;;;;;2.03;0.82;;;20.80;95.60;;;;;;4972563;28;20066;-81
2021/08/19 09:25:36;;;;;;;2.97;1.20;;;20.80;95.60;;;;;;4972193;28;20031;-80
2021/08/19 09:28:16;;;;;;;2.08;1.10;;;20.80;95.70;;;;;;4972447;28;20073;-80
2021/08/19 09:30:50;;;;;;;1.55;0.60;;;20.80;95.80;;;;;;4972423;28;20565;-81
2021/08/19 09:33:20;;;;;;;1.58;0.90;;;20.70;95.70;;;;;;4972245;28;20462;-80
2021/08/19 09:35:47;;;;;;;2.10;1.00;;;20.70;95.80;;;;;;4972377;28;20035;-81
2021/08/19 09:38:16;;;;;;;1.83;0.82;;;20.70;95.80;;;;;;4972087;28;20147;-81
2021/08/19 09:40:43;;;;;;;1.55;0.90;;;20.70;95.80;;;;;;4972247;28;20027;-81
2021/08/19 09:43:11;;;;;;;2.65;0.82;;;20.70;95.80;;;;;;4972003;28;20026;-81
2021/08/19 09:45:45;;;;;;;2.28;0.98;;;20.70;95.80;;;;;;4972296;28;20034;-81
2021/08/19 09:48:13;;;;;;;1.92;1.05;;;20.70;95.70;;;;;;4972026;28;20039;-81
2021/08/19 09:50:39;;;;;;;2.85;1.00;;;20.70;95.70;;;;;;4972296;28;20158;-81
2021/08/19 09:53:17;;;;;;;2.38;1.00;;;20.70;95.70;;;;;;4955190;28;20069;-80
2021/08/19 09:55:43;;;;;;;3.20;0.82;;;20.70;95.70;;;;;;4972159;28;20081;-80
2021/08/19 09:58:09;;;;;;;2.83;0.93;;;20.70;95.70;;;;;;4972262;28;20027;-80
2021/08/19 10:00:38;;;;;;;1.85;1.00;;;20.70;95.60;;;;;;4972428;28;20519;-81
2021/08/19 10:03:04;;;;;;;2.83;0.80;;;20.70;95.60;;;;;;4955166;28;20109;-81
2021/08/19 10:05:30;;;;;;;2.97;0.90;;;20.70;95.50;;;;;;4954411;28;20070;-81
2021/08/19 10:07:59;;;;;;;1.95;0.70;;;20.70;95.40;;;;;;4972033;28;20030;-81
2021/08/19 10:10:26;;;;;;;2.00;0.90;;;20.80;95.40;;;;;;4954488;28;20050;-81
2021/08/19 10:12:52;;;;;;;1.90;0.93;;;20.80;95.30;;;;;;4954822;28;20430;-80
2021/08/19 10:15:20;;;;;;;1.48;0.63;;;20.80;95.30;;;;;;4971807;28;20026;-80
2021/08/19 10:17:49;;;;;;;2.92;0.85;;;20.80;95.30;;;;;;4970704;28;20062;-81
2021/08/19 10:21:02;;;;;;;1.80;0.98;;;20.80;95.20;;;;;;4970382;28;20121;-80
2021/08/19 10:23:28;;;;;;;2.40;1.00;;;20.80;95.30;;;;;;4931358;29;20036;-81
2021/08/19 10:26:05;;;;;;;2.50;1.00;;;20.80;95.20;;;;;;4933532;29;20040;-81
2021/08/19 10:28:51;;;;;;;0.88;0.52;;;20.80;95.20;;;;;;4958645;28;20530;-81
2021/08/19 10:31:44;;;;;;;2.67;0.98;;;20.80;95.20;;;;;;4968319;28;20042;-80
2021/08/19 10:34:15;;;;;;;2.95;1.08;;;20.80;95.20;;;;;;4974149;28;20114;-80
2021/08/19 10:36:47;;;;;;;1.67;0.60;;;20.70;95.20;;;;;;4958156;28;20114;-80
2021/08/19 10:39:19;;;;;;;3.60;0.88;;;20.70;95.10;;;;;;4975230;28;20026;-81
2021/08/19 10:41:45;;;;;;;2.38;0.93;;;20.80;95.20;;;;;;4975311;28;20089;-80
2021/08/19 10:44:12;;;;;;;3.70;1.05;;;20.80;95.10;;;;;;4975134;28;20030;-81
2021/08/19 10:46:44;;;;;;;2.05;0.68;;;20.80;95.10;;;;;;4958294;28;20066;-81
2021/08/19 10:49:31;;;;;;;2.03;0.73;;;20.80;95.10;;;;;;4975241;28;20023;-81
2021/08/19 10:52:22;;;;;;;2.33;1.23;;;20.80;95.00;;;;;;4975273;28;20486;-81
2021/08/19 10:54:50;;;;;;;3.03;1.20;;;20.80;94.90;;;;;;4975121;28;20034;-81
2021/08/19 10:57:24;;;;;;;2.38;1.00;;;20.80;94.80;;;;;;4974942;28;20019;-81
2021/08/19 10:59:57;;;;;;;1.95;0.80;;;20.90;94.70;;;;;;4975049;28;20019;-81
2021/08/19 11:02:51;;;;;;;2.17;0.85;;;20.90;94.60;;;;;;4974847;28;20034;-81
2021/08/19 11:05:25;;;;;;;1.98;0.68;;;21.00;94.30;;;;;;4974731;28;20023;-81
2021/08/19 11:07:56;;;;;;;2.13;0.98;;;21.10;94.20;;;;;;4974942;28;20030;-81
2021/08/19 11:10:30;;;;;;;1.63;0.60;;;21.10;94.00;;;;;;4957310;28;20399;-81
2021/08/19 11:13:03;;;;;;;2.88;0.82;;;21.10;94.00;;;;;;4974904;28;20027;-81
2021/08/19 11:15:29;;;;;;;2.03;1.00;;;21.10;94.20;;;;;;4974581;28;20077;-81
2021/08/19 11:17:57;;;;;;;1.58;0.80;;;21.00;94.20;;;;;;4974770;28;20031;-81
2021/08/19 11:20:34;;;;;;;3.20;0.90;;;21.00;94.20;;;;;;4974489;28;20033;-81
2021/08/19 11:23:11;;;;;;;2.35;0.85;;;21.00;94.20;;;;;;4957218;28;20031;-81
2021/08/19 11:25:42;;;;;;;1.00;0.70;;;21.00;94.20;;;;;;4957435;28;20088;-81
2021/08/19 11:28:16;;;;;;;1.92;0.90;;;21.00;94.20;;;;;;4974948;28;20035;-81
2021/08/19 11:30:50;;;;;;;2.13;0.70;;;21.00;94.20;;;;;;4973439;28;20023;-80
2021/08/19 11:33:26;;;;;;;3.72;1.08;;;20.90;94.20;;;;;;4974219;28;20031;-81
2021/08/19 11:35:57;;;;;;;1.05;0.60;;;20.90;94.30;;;;;;4974542;28;20011;-81
2021/08/19 11:38:25;;;;;;;2.53;0.90;;;20.90;94.30;;;;;;4973634;28;20038;-81
2021/08/19 11:40:56;;;;;;;2.25;0.73;;;20.90;94.30;;;;;;4973108;28;20383;-81
2021/08/19 11:43:26;;;;;;;1.98;0.93;;;20.90;94.30;;;;;;4972808;28;20121;-81
2021/08/19 11:46:02;;;;;;;1.80;0.77;;;20.90;94.40;;;;;;4972921;28;20511;-81
2021/08/19 11:48:28;;;;;;;1.65;0.70;;;20.90;94.30;;;;;;4956504;28;20169;-81
2021/08/19 11:50:56;;;;;;;1.35;0.40;;;20.90;94.30;;;;;;4974217;28;20526;-81
2021/08/19 11:53:22;;;;;;;1.60;0.80;;;20.90;94.60;;;;;;4956645;28;20074;-81
2021/08/19 11:55:49;;;;;;;2.70;1.10;;;20.90;94.30;;;;;;4974074;28;20632;-81
2021/08/19 11:58:19;;;;;;;3.28;1.20;;;20.90;94.20;;;;;;4973573;28;20023;-81
2021/08/19 12:01:05;;;;;;;0.90;0.80;;;20.90;94.10;;;;;;4972768;28;20023;-81
2021/08/19 12:03:36;;;;;;;3.05;0.98;;;21.00;94.00;;;;;;4973798;28;20023;-81
2021/08/19 12:06:04;;;;;;;1.50;0.88;;;21.00;94.00;;;;;;4973895;28;20030;-81
2021/08/19 12:08:31;;;;;;;2.90;0.80;;;21.00;94.00;;;;;;4973530;28;20031;-81
2021/08/19 12:10:59;;;;;;;2.50;0.88;;;21.00;94.00;;;;;;4973772;28;20019;-81
2021/08/19 12:13:26;;;;;;;2.05;0.90;;;21.00;94.00;;;;;;4973569;28;20023;-81
2021/08/19 12:15:52;;;;;;;1.77;0.70;;;21.00;93.90;;;;;;4956385;28;20426;-81
2021/08/19 12:18:23;;;;;;;1.20;0.77;;;21.00;93.90;;;;;;4973478;28;20070;-81
2021/08/19 12:20:50;;;;;;;1.88;0.98;;;21.10;93.80;;;;;;4956277;28;20073;-81
2021/08/19 12:23:26;;;;;;;1.75;0.70;;;21.10;93.60;;;;;;4973282;28;20015;-81
2021/08/19 12:25:52;;;;;;;1.55;0.82;;;21.10;93.50;;;;;;4973534;28;20034;-81
2021/08/19 12:28:22;;;;;;;2.25;0.80;;;21.20;93.40;;;;;;4973309;28;20019;-81
2021/08/19 12:30:59;;;;;;;3.72;1.13;;;21.20;93.30;;;;;;4973510;28;20073;-81
2021/08/19 12:33:38;;;;;;;2.15;0.80;;;21.10;93.50;;;;;;4973226;28;20046;-80
2021/08/19 12:36:10;;;;;;;1.67;0.95;;;21.10;93.50;;;;;;4973428;28;20027;-81
2021/08/19 12:38:36;;;;;;;2.20;1.00;;;21.00;93.60;;;;;;4973604;28;20562;-81
2021/08/19 12:41:23;;;;;;;1.80;0.88;;;21.00;93.70;;;;;;4973170;28;20110;-81
2021/08/19 12:44:07;;;;;;;3.38;0.95;;;21.00;93.70;;;;;;4973193;28;20097;-81
2021/08/19 12:46:50;;;;;;;2.50;0.95;;;21.00;93.60;;;;;;4955484;28;20155;-81
2021/08/19 12:49:33;;;;;;;1.70;0.70;;;21.10;93.60;;;;;;4972055;28;20506;-81
2021/08/19 12:52:17;;;;;;;2.15;0.88;;;21.10;93.40;;;;;;4973137;28;20034;-81